createdAt,value
2018-08-20T00:01:51.192Z,46.45
2018-08-20T00:04:19.835Z,46.40
2018-08-20T00:06:56.611Z,46.73
2018-08-20T00:09:36.807Z,46.96
2018-08-20T00:12:06.881Z,47.92
2018-08-20T00:14:35.684Z,47.92
2018-08-20T00:17:04.417Z,48.30
2018-08-20T00:19:33.024Z,48.30
2018-08-20T00:22:01.643Z,47.99
2018-08-20T00:24:30.236Z,48.44
2018-08-20T00:27:00.087Z,48.28
2018-08-20T00:29:28.676Z,48.62
2018-08-20T00:31:57.371Z,48.43
2018-08-20T00:34:26.092Z,48.51
2018-08-20T00:36:54.655Z,48.13
2018-08-20T00:39:23.239Z,48.77
2018-08-20T00:41:52.211Z,48.97
2018-08-20T00:44:20.912Z,48.37
2018-08-20T00:46:49.464Z,48.95
2018-08-20T00:49:18.191Z,48.52
2018-08-20T00:51:46.779Z,48.58
2018-08-20T00:54:15.431Z,49.45
2018-08-20T00:56:44.330Z,49.40
2018-08-20T00:59:12.879Z,49.43
2018-08-20T01:01:41.438Z,49.35
2018-08-20T01:04:10.035Z,48.50
2018-08-20T01:06:38.619Z,49.12
2018-08-20T01:09:08.536Z,49.53
2018-08-20T01:11:37.831Z,49.09
2018-08-20T01:14:06.477Z,49.28
2018-08-20T01:16:35.119Z,49.53
2018-08-20T01:19:03.947Z,49.21
2018-08-20T01:21:32.532Z,49.58
2018-08-20T01:24:01.148Z,49.17
2018-08-20T01:26:29.751Z,48.91
2018-08-20T01:28:58.307Z,48.66
2018-08-20T01:31:26.875Z,48.48
2018-08-20T01:33:55.755Z,48.58
2018-08-20T01:36:24.323Z,49.26
2018-08-20T01:38:52.894Z,48.80
2018-08-20T01:41:21.715Z,49.00
2018-08-20T01:43:50.309Z,49.76
2018-08-20T01:46:18.886Z,49.54
2018-08-20T01:48:47.471Z,49.62
2018-08-20T01:51:16.098Z,49.72
2018-08-20T01:53:44.680Z,50.45
2018-08-20T01:56:13.295Z,50.28
2018-08-20T01:58:41.871Z,50.39
2018-08-20T02:01:10.519Z,50.28
2018-08-20T02:03:39.143Z,50.00
2018-08-20T02:06:07.774Z,50.46
2018-08-20T02:08:36.432Z,50.74
2018-08-20T02:11:05.035Z,50.29
2018-08-20T02:13:33.703Z,50.42
2018-08-20T02:16:02.267Z,50.60
2018-08-20T02:18:30.956Z,50.82
2018-08-20T02:20:59.572Z,50.74
2018-08-20T02:23:28.127Z,50.73
2018-08-20T02:25:56.752Z,51.33
2018-08-20T02:28:25.340Z,50.61
2018-08-20T02:30:53.924Z,50.60
2018-08-20T02:33:22.540Z,51.27
2018-08-20T02:35:51.097Z,50.69
2018-08-20T02:38:19.716Z,50.69
2018-08-20T02:40:48.323Z,50.71
2018-08-20T02:43:16.964Z,51.40
2018-08-20T02:45:45.548Z,51.30
2018-08-20T02:48:14.160Z,51.44
2018-08-20T02:50:42.728Z,51.58
2018-08-20T02:53:11.312Z,50.66
2018-08-20T02:55:39.932Z,50.92
2018-08-20T02:58:08.540Z,50.84
2018-08-20T03:00:37.099Z,51.22
2018-08-20T03:03:05.800Z,51.66
2018-08-20T03:05:34.907Z,51.95
2018-08-20T03:08:03.506Z,51.85
2018-08-20T03:10:32.103Z,51.53
2018-08-20T03:13:00.692Z,51.72
2018-08-20T03:15:29.263Z,52.16
2018-08-20T03:17:57.931Z,52.25
2018-08-20T03:20:26.572Z,52.13
2018-08-20T03:22:55.114Z,51.81
2018-08-20T03:25:23.995Z,52.51
2018-08-20T03:27:52.595Z,52.58
2018-08-20T03:30:21.148Z,52.61
2018-08-20T03:32:50.066Z,52.46
2018-08-20T03:35:18.629Z,52.50
2018-08-20T03:37:47.199Z,52.55
2018-08-20T03:40:16.114Z,52.67
2018-08-20T03:42:44.696Z,52.08
2018-08-20T03:45:13.463Z,52.43
2018-08-20T03:47:42.379Z,52.17
2018-08-20T03:50:13.511Z,52.47
2018-08-20T03:52:42.155Z,52.77
2018-08-20T03:55:10.771Z,52.51
2018-08-20T03:57:39.375Z,52.23
2018-08-20T04:00:10.193Z,52.27
2018-08-20T04:02:38.772Z,52.57
2018-08-20T04:05:07.527Z,52.63
2018-08-20T04:07:36.136Z,52.69
2018-08-20T04:10:04.791Z,52.88
2018-08-20T04:12:33.334Z,52.82
2018-08-20T04:15:02.016Z,52.91
2018-08-20T04:17:30.621Z,52.90
2018-08-20T04:19:59.195Z,53.22
2018-08-20T04:22:27.808Z,52.80
2018-08-20T04:24:56.388Z,52.93
2018-08-20T04:27:24.951Z,53.26
2018-08-20T04:29:53.563Z,53.35
2018-08-20T04:32:22.122Z,53.14
2018-08-20T04:34:50.800Z,53.47
2018-08-20T04:37:19.487Z,53.54
2018-08-20T04:39:48.077Z,53.24
2018-08-20T04:42:16.763Z,53.70
2018-08-20T04:44:45.546Z,53.67
2018-08-20T04:50:00.897Z,53.37
2018-08-20T04:52:29.424Z,53.16
2018-08-20T04:54:58.021Z,53.26
2018-08-20T04:57:27.007Z,53.75
2018-08-20T04:59:55.552Z,53.89
2018-08-20T05:02:24.131Z,53.56
2018-08-20T05:04:52.805Z,53.43
2018-08-20T05:07:21.383Z,54.01
2018-08-20T05:09:49.959Z,53.53
2018-08-20T05:12:18.568Z,53.94
2018-08-20T05:14:47.164Z,53.98
2018-08-20T05:17:15.775Z,54.04
2018-08-20T05:19:44.367Z,53.79
2018-08-20T05:22:12.927Z,53.61
2018-08-20T05:24:41.479Z,53.60
2018-08-20T05:27:10.084Z,53.67
2018-08-20T05:29:38.668Z,53.14
2018-08-20T05:32:07.419Z,53.39
2018-08-20T05:34:36.120Z,52.75
2018-08-20T05:37:05.048Z,53.00
2018-08-20T05:39:33.616Z,52.62
2018-08-20T05:42:02.279Z,52.66
2018-08-20T05:44:30.836Z,52.13
2018-08-20T05:46:59.402Z,52.17
2018-08-20T05:49:28.219Z,51.74
2018-08-20T05:51:56.823Z,52.18
2018-08-20T05:54:25.740Z,51.55
2018-08-20T05:56:54.595Z,50.98
2018-08-20T05:59:23.484Z,50.87
2018-08-20T06:01:52.479Z,50.25
2018-08-20T06:04:21.460Z,50.42
2018-08-20T06:06:50.615Z,50.14
2018-08-20T06:09:19.767Z,49.71
2018-08-20T06:11:48.392Z,49.44
2018-08-20T06:14:17.364Z,49.36
2018-08-20T06:16:46.288Z,48.91
2018-08-20T06:19:14.901Z,47.71
2018-08-20T06:21:43.464Z,47.33
2018-08-20T06:24:12.096Z,47.53
2018-08-20T06:26:40.756Z,46.83
2018-08-20T06:29:09.341Z,46.98
2018-08-20T06:31:37.924Z,46.91
2018-08-20T06:34:07.033Z,46.43
2018-08-20T06:36:35.605Z,46.12
2018-08-20T06:39:05.852Z,46.07
2018-08-20T06:41:34.820Z,45.76
2018-08-20T06:44:03.464Z,45.54
2018-08-20T06:46:32.037Z,45.18
2018-08-20T06:49:00.964Z,44.88
2018-08-20T06:51:29.568Z,44.82
2018-08-20T06:53:58.139Z,44.75
2018-08-20T06:56:26.768Z,43.86
2018-08-20T06:58:55.336Z,44.19
2018-08-20T07:01:23.928Z,43.66
2018-08-20T07:03:52.596Z,43.61
2018-08-20T07:06:21.194Z,43.43
2018-08-20T07:08:49.792Z,42.09
2018-08-20T07:11:18.399Z,41.94
2018-08-20T07:13:46.988Z,42.00
2018-08-20T07:16:15.671Z,40.38
2018-08-20T07:18:45.216Z,40.30
2018-08-20T07:21:13.763Z,40.26
2018-08-20T07:23:42.385Z,38.85
2018-08-20T07:26:11.282Z,37.88
2018-08-20T07:28:39.851Z,37.38
2018-08-20T07:31:08.436Z,37.62
2018-08-20T07:33:37.076Z,37.53
2018-08-20T07:36:05.683Z,36.82
2018-08-20T07:38:34.276Z,36.40
2018-08-20T07:41:02.949Z,36.09
2018-08-20T07:43:31.684Z,35.05
2018-08-20T07:46:00.400Z,34.72
2018-08-20T07:48:29.350Z,34.11
2018-08-20T07:50:58.012Z,33.96
2018-08-20T07:53:26.593Z,33.07
2018-08-20T07:55:55.291Z,32.37
2018-08-20T07:58:23.956Z,32.57
2018-08-20T08:00:52.539Z,32.77
2018-08-20T08:03:29.191Z,32.83
2018-08-20T08:05:59.280Z,32.58
2018-08-20T08:08:27.877Z,31.82
2018-08-20T08:10:56.475Z,31.90
2018-08-20T08:13:25.088Z,31.31
2018-08-20T08:15:53.656Z,32.04
2018-08-20T08:18:22.596Z,31.56
2018-08-20T08:20:51.216Z,31.32
2018-08-20T08:23:19.835Z,31.12
2018-08-20T08:25:48.566Z,31.40
2018-08-20T08:28:17.172Z,30.99
2018-08-20T08:30:45.776Z,30.80
2018-08-20T08:33:14.508Z,31.38
2018-08-20T08:35:43.132Z,30.52
2018-08-20T08:38:11.905Z,30.40
2018-08-20T08:40:40.488Z,30.98
2018-08-20T08:43:09.098Z,30.22
2018-08-20T08:45:37.671Z,30.24
2018-08-20T08:48:06.399Z,30.23
2018-08-20T08:50:34.997Z,29.92
2018-08-20T08:53:03.568Z,29.44
2018-08-20T08:55:32.179Z,29.71
2018-08-20T08:58:00.772Z,29.14
2018-08-20T09:00:29.423Z,29.73
2018-08-20T09:02:58.012Z,29.38
2018-08-20T09:05:26.578Z,29.07
2018-08-20T09:07:55.214Z,28.42
2018-08-20T09:10:24.091Z,28.05
2018-08-20T09:12:52.675Z,29.33
2018-08-20T09:15:21.263Z,29.55
2018-08-20T09:17:49.939Z,29.25
2018-08-20T09:20:18.659Z,28.71
2018-08-20T09:22:47.280Z,28.24
2018-08-20T09:25:16.067Z,28.39
2018-08-20T09:27:45.484Z,27.72
2018-08-20T09:30:19.077Z,26.98
2018-08-20T09:32:48.487Z,28.49
2018-08-20T09:35:17.163Z,28.37
2018-08-20T09:37:46.099Z,28.20
2018-08-20T09:40:14.874Z,27.21
2018-08-20T09:42:44.027Z,26.55
2018-08-20T09:45:13.083Z,26.15
2018-08-20T09:47:42.548Z,26.75
2018-08-20T09:50:14.040Z,26.93
2018-08-20T09:52:43.371Z,25.96
2018-08-20T09:55:11.958Z,25.96
2018-08-20T09:57:41.073Z,26.68
2018-08-20T10:00:20.212Z,26.30
2018-08-20T10:02:49.004Z,27.16
2018-08-20T10:05:17.995Z,25.99
2018-08-20T10:07:47.048Z,25.45
2018-08-20T10:10:16.148Z,26.28
2018-08-20T10:12:45.704Z,25.54
2018-08-20T10:15:14.792Z,24.94
2018-08-20T10:17:44.523Z,24.69
2018-08-20T10:20:14.316Z,24.02
2018-08-20T10:22:42.919Z,23.99
2018-08-20T10:25:11.565Z,24.04
2018-08-20T10:27:40.168Z,24.49
2018-08-20T10:30:10.463Z,25.12
2018-08-20T10:32:39.180Z,24.99
2018-08-20T10:35:08.136Z,24.78
2018-08-20T10:37:36.778Z,25.29
2018-08-20T10:40:06.450Z,24.86
2018-08-20T10:42:35.067Z,25.57
2018-08-20T10:45:09.082Z,24.66
2018-08-20T10:47:37.644Z,24.99
2018-08-20T10:50:06.409Z,25.08
2018-08-20T10:52:34.975Z,24.21
2018-08-20T10:55:03.569Z,24.64
2018-08-20T10:57:32.282Z,24.80
2018-08-20T11:00:00.900Z,24.22
2018-08-20T11:02:29.476Z,24.62
2018-08-20T11:04:58.055Z,25.35
2018-08-20T11:07:26.668Z,24.76
2018-08-20T11:09:55.237Z,24.39
2018-08-20T11:12:23.880Z,25.87
2018-08-20T11:14:52.688Z,26.56
2018-08-20T11:17:21.255Z,27.20
2018-08-20T11:19:49.856Z,27.29
2018-08-20T11:22:18.516Z,27.75
2018-08-20T11:24:47.096Z,27.78
2018-08-20T11:27:15.640Z,26.04
2018-08-20T11:29:44.444Z,23.94
2018-08-20T11:32:13.004Z,21.85
2018-08-20T11:34:41.679Z,19.99
2018-08-20T11:37:10.373Z,18.77
2018-08-20T11:39:38.976Z,17.71
2018-08-20T11:42:07.575Z,17.05
2018-08-20T11:44:36.267Z,16.38
2018-08-20T11:47:04.913Z,16.22
2018-08-20T11:49:33.604Z,17.43
2018-08-20T11:52:02.293Z,20.20
2018-08-20T11:54:30.851Z,21.65
2018-08-20T11:56:59.495Z,22.44
2018-08-20T11:59:28.219Z,24.01
2018-08-20T12:01:56.972Z,24.68
2018-08-20T12:04:25.508Z,25.25
2018-08-20T12:06:54.179Z,26.42
2018-08-20T12:09:22.732Z,25.94
2018-08-20T12:11:51.306Z,25.76
2018-08-20T12:14:20.012Z,26.00
2018-08-20T12:16:48.600Z,26.19
2018-08-20T12:19:17.203Z,25.89
2018-08-20T12:21:45.946Z,25.91
2018-08-20T12:24:14.504Z,25.92
2018-08-20T12:26:43.068Z,25.58
2018-08-20T12:29:11.831Z,25.99
2018-08-20T12:31:40.435Z,26.76
2018-08-20T12:34:09.053Z,26.57
2018-08-20T12:36:38.463Z,26.56
2018-08-20T12:39:08.468Z,26.48
2018-08-20T12:41:37.036Z,27.21
2018-08-20T12:44:06.140Z,27.21
2018-08-20T12:46:34.676Z,27.20
2018-08-20T12:49:03.279Z,28.01
2018-08-20T12:51:31.931Z,27.84
2018-08-20T12:54:00.624Z,27.73
2018-08-20T12:56:29.188Z,27.13
2018-08-20T12:58:57.947Z,27.05
2018-08-20T13:01:26.565Z,27.18
2018-08-20T13:03:55.142Z,27.29
2018-08-20T13:06:23.776Z,27.87
2018-08-20T13:08:52.353Z,27.34
2018-08-20T13:11:21.117Z,27.12
2018-08-20T13:13:49.860Z,26.89
2018-08-20T13:16:18.478Z,26.64
2018-08-20T13:18:46.980Z,27.04
2018-08-20T13:21:15.801Z,27.68
2018-08-20T13:23:44.345Z,28.07
2018-08-20T13:26:12.948Z,28.27
2018-08-20T13:28:41.584Z,28.10
2018-08-20T13:31:10.263Z,27.76
2018-08-20T13:33:38.837Z,27.76
2018-08-20T13:36:07.585Z,28.28
2018-08-20T13:38:36.211Z,28.25
2018-08-20T13:41:04.823Z,28.07
2018-08-20T13:43:33.419Z,27.98
2018-08-20T13:46:02.050Z,28.43
2018-08-20T13:48:30.624Z,29.44
2018-08-20T13:50:59.231Z,28.78
2018-08-20T13:53:27.785Z,29.03
2018-08-20T13:55:56.385Z,29.72
2018-08-20T13:58:25.030Z,29.88
2018-08-20T14:00:53.662Z,29.86
2018-08-20T14:03:22.327Z,29.88
2018-08-20T14:05:51.181Z,31.15
2018-08-20T14:08:19.756Z,30.88
2018-08-20T14:10:48.335Z,30.19
2018-08-20T14:13:16.972Z,30.77
2018-08-20T14:15:45.684Z,30.85
2018-08-20T14:18:14.207Z,30.56
2018-08-20T14:21:18.126Z,30.88
2018-08-20T14:23:47.905Z,30.61
2018-08-20T14:26:16.529Z,31.20
2018-08-20T14:28:45.173Z,30.51
2018-08-20T14:31:13.770Z,30.37
2018-08-20T14:33:42.339Z,30.04
2018-08-20T14:36:11.192Z,30.78
2018-08-20T14:38:39.763Z,30.75
2018-08-20T14:41:08.368Z,30.11
2018-08-20T14:43:36.996Z,30.67
2018-08-20T14:46:11.269Z,30.83
2018-08-20T14:48:39.917Z,31.18
2018-08-20T14:51:08.432Z,31.42
2018-08-20T14:53:37.050Z,30.95
2018-08-20T14:56:05.972Z,30.79
2018-08-20T14:58:34.564Z,31.24
2018-08-20T15:01:03.120Z,31.00
2018-08-20T15:03:32.148Z,30.80
2018-08-20T15:06:00.700Z,31.19
2018-08-20T15:08:29.264Z,31.23
2018-08-20T15:10:57.912Z,31.29
2018-08-20T15:13:26.480Z,31.47
2018-08-20T15:15:55.097Z,31.57
2018-08-20T15:18:24.055Z,31.37
2018-08-20T15:20:52.680Z,31.91
2018-08-20T15:23:21.259Z,32.53
2018-08-20T15:25:49.917Z,31.25
2018-08-20T15:28:18.529Z,31.91
2018-08-20T15:30:47.149Z,32.64
2018-08-20T15:33:15.764Z,32.22
2018-08-20T15:35:44.317Z,32.77
2018-08-20T15:38:13.016Z,32.81
2018-08-20T15:40:41.616Z,32.35
2018-08-20T15:43:10.392Z,32.88
2018-08-20T15:45:38.964Z,32.90
2018-08-20T15:48:07.873Z,33.36
2018-08-20T15:50:36.432Z,33.83
2018-08-20T15:53:05.068Z,33.98
2018-08-20T15:55:33.764Z,34.21
2018-08-20T15:58:02.360Z,33.66
2018-08-20T16:00:30.963Z,33.94
2018-08-20T16:03:00.104Z,34.52
2018-08-20T16:05:28.684Z,34.02
2018-08-20T16:07:57.268Z,34.44
2018-08-20T16:10:25.944Z,33.48
2018-08-20T16:12:54.711Z,34.04
2018-08-20T16:15:23.283Z,34.50
2018-08-20T16:17:51.967Z,34.34
2018-08-20T16:20:20.573Z,33.92
2018-08-20T16:22:49.131Z,34.55
2018-08-20T16:25:17.707Z,35.09
2018-08-20T16:27:46.260Z,35.12
2018-08-20T16:30:14.891Z,35.32
2018-08-20T16:32:43.557Z,35.62
2018-08-20T16:35:13.264Z,35.35
2018-08-20T16:37:43.387Z,35.74
2018-08-20T16:40:12.375Z,35.41
2018-08-20T16:42:40.938Z,35.04
2018-08-20T16:45:10.647Z,35.60
2018-08-20T16:47:39.710Z,34.98
2018-08-20T16:50:10.676Z,35.39
2018-08-20T16:52:40.239Z,35.24
2018-08-20T16:55:09.568Z,35.71
2018-08-20T16:57:38.216Z,35.69
2018-08-20T17:00:09.043Z,35.44
2018-08-20T17:02:41.900Z,36.17
2018-08-20T17:05:12.084Z,35.80
2018-08-20T17:07:41.031Z,35.28
2018-08-20T17:10:11.536Z,35.91
2018-08-20T17:12:40.630Z,35.84
2018-08-20T17:15:11.304Z,35.97
2018-08-20T17:17:40.363Z,35.91
2018-08-20T17:20:10.507Z,35.58
2018-08-20T17:22:39.244Z,35.70
2018-08-20T17:25:08.552Z,36.52
2018-08-20T17:27:37.270Z,35.69
2018-08-20T17:30:08.214Z,36.13
2018-08-20T17:32:36.884Z,35.84
2018-08-20T17:35:08.167Z,36.47
2018-08-20T17:37:36.779Z,36.12
2018-08-20T17:40:08.811Z,36.80
2018-08-20T17:42:37.401Z,36.62
2018-08-20T17:45:07.489Z,37.13
2018-08-20T17:47:39.389Z,37.11
2018-08-20T17:50:19.956Z,37.13
2018-08-20T17:52:48.907Z,37.12
2018-08-20T17:55:17.504Z,36.74
2018-08-20T17:57:46.151Z,37.42
2018-08-20T18:00:26.200Z,37.06
2018-08-20T18:02:54.796Z,36.80
2018-08-20T18:05:25.023Z,36.99
2018-08-20T18:07:54.171Z,37.23
2018-08-20T18:10:22.739Z,37.74
2018-08-20T18:12:51.313Z,37.37
2018-08-20T18:15:20.069Z,37.46
2018-08-20T18:17:48.639Z,37.98
2018-08-20T18:20:17.221Z,38.13
2018-08-20T18:22:45.876Z,37.50
2018-08-20T18:25:18.893Z,37.51
2018-08-20T18:27:47.763Z,37.91
2018-08-20T18:30:17.899Z,37.87
2018-08-20T18:32:46.919Z,38.31
2018-08-20T18:35:22.723Z,37.71
2018-08-20T18:37:52.158Z,38.36
2018-08-20T18:40:20.834Z,37.99
2018-08-20T18:42:49.424Z,38.01
2018-08-20T18:45:18.365Z,38.74
2018-08-20T18:47:46.953Z,38.11
2018-08-20T18:50:15.746Z,38.91
2018-08-20T18:52:44.724Z,38.50
2018-08-20T18:55:13.303Z,39.38
2018-08-20T18:57:41.867Z,38.63
2018-08-20T19:00:13.452Z,38.69
2018-08-20T19:02:47.955Z,39.34
2018-08-20T19:05:17.786Z,39.65
2018-08-20T19:07:46.744Z,39.19
2018-08-20T19:10:24.170Z,39.87
2018-08-20T19:12:52.944Z,39.24
2018-08-20T19:15:50.032Z,40.31
2018-08-20T19:18:21.323Z,40.17
2018-08-20T19:20:50.016Z,40.45
2018-08-20T19:23:18.588Z,40.33
2018-08-20T19:25:47.621Z,40.28
2018-08-20T19:28:20.914Z,40.23
2018-08-20T19:30:50.184Z,41.08
2018-08-20T19:33:24.961Z,40.82
2018-08-20T19:35:54.134Z,40.37
2018-08-20T19:38:22.831Z,41.22
2018-08-20T19:41:07.380Z,41.03
2018-08-20T19:43:53.528Z,40.63
2018-08-20T19:46:28.751Z,41.32
2018-08-20T19:49:02.666Z,41.23
2018-08-20T19:51:33.260Z,41.30
2018-08-20T19:54:01.920Z,41.52
2018-08-20T19:56:30.835Z,40.96
2018-08-20T19:58:59.732Z,41.63
2018-08-20T20:01:28.452Z,41.58
2018-08-20T20:03:57.135Z,41.84
2018-08-20T20:06:25.827Z,41.97
2018-08-20T20:08:54.502Z,41.77
2018-08-20T20:11:28.391Z,41.89
2018-08-20T20:14:01.053Z,41.18
2018-08-20T20:16:40.198Z,41.54
2018-08-20T20:19:09.683Z,41.65
2018-08-20T20:21:38.566Z,41.84
2018-08-20T20:24:07.903Z,42.06
2018-08-20T20:26:36.511Z,41.92
2018-08-20T20:29:06.217Z,42.04
2018-08-20T20:31:34.831Z,42.66
2018-08-20T20:34:03.440Z,42.82
2018-08-20T20:36:32.839Z,43.15
2018-08-20T20:39:02.313Z,43.29
2018-08-20T20:41:30.907Z,43.40
2018-08-20T20:43:59.531Z,43.35
2018-08-20T20:46:28.172Z,43.48
2018-08-20T20:48:56.812Z,44.24
2018-08-20T20:51:25.379Z,43.89
2018-08-20T20:53:54.297Z,43.62
2018-08-20T20:56:22.879Z,44.04
2018-08-20T20:58:51.456Z,43.75
2018-08-20T21:01:20.261Z,44.32
2018-08-20T21:03:48.831Z,44.25
2018-08-20T21:06:17.399Z,44.40
2018-08-20T21:08:47.743Z,44.16
2018-08-20T21:11:17.567Z,44.47
2018-08-20T21:13:46.676Z,44.44
2018-08-20T21:16:17.732Z,45.03
2018-08-20T21:18:52.903Z,44.93
2018-08-20T21:21:22.172Z,44.97
2018-08-20T21:23:50.867Z,45.82
2018-08-20T21:26:19.503Z,45.51
2018-08-20T21:28:51.708Z,45.18
2018-08-20T21:31:21.663Z,45.37
2018-08-20T21:34:01.544Z,45.66
2018-08-20T21:36:30.103Z,45.50
2018-08-20T21:38:58.772Z,45.74
2018-08-20T21:41:29.327Z,45.64
2018-08-20T21:43:57.975Z,45.58
2018-08-20T21:46:26.572Z,46.21
2018-08-20T21:48:55.215Z,46.77
2018-08-20T21:51:25.536Z,46.56
2018-08-20T21:53:54.292Z,46.90
2018-08-20T21:56:22.983Z,46.68
2018-08-20T21:58:51.547Z,46.59
2018-08-20T22:01:20.352Z,46.46
2018-08-20T22:03:48.884Z,47.27
2018-08-20T22:06:17.471Z,47.04
2018-08-20T22:08:46.186Z,47.67
2018-08-20T22:11:14.754Z,47.88
2018-08-20T22:13:43.351Z,47.86
2018-08-20T22:16:25.541Z,47.46
2018-08-20T22:18:55.656Z,47.53
2018-08-20T22:21:24.776Z,47.84
2018-08-20T22:23:58.388Z,47.92
2018-08-20T22:26:27.280Z,47.45
2018-08-20T22:28:55.947Z,47.51
2018-08-20T22:31:25.200Z,47.46
2018-08-20T22:33:59.643Z,48.13
2018-08-20T22:36:29.443Z,48.17
2018-08-20T22:39:00.373Z,48.34
2018-08-20T22:41:30.152Z,47.79
2018-08-20T22:43:58.859Z,48.14
2018-08-20T22:46:27.588Z,48.31
2018-08-20T22:48:58.055Z,48.34
2018-08-20T22:51:28.095Z,48.05
2018-08-20T22:53:59.360Z,48.89
2018-08-20T22:56:35.239Z,48.65
2018-08-20T22:59:08.967Z,48.84
2018-08-20T23:01:37.571Z,48.87
2018-08-20T23:04:06.687Z,48.64
2018-08-20T23:06:35.356Z,49.11
2018-08-20T23:09:20.491Z,48.91
2018-08-20T23:11:49.123Z,48.62
2018-08-20T23:14:17.727Z,48.87
2018-08-20T23:16:50.828Z,49.22
2018-08-20T23:19:19.568Z,49.39
2018-08-20T23:21:49.115Z,49.89
2018-08-20T23:24:18.607Z,50.01
2018-08-20T23:26:47.189Z,50.09
2018-08-20T23:29:15.763Z,50.11
2018-08-20T23:31:44.409Z,50.15
2018-08-20T23:34:14.343Z,50.13
2018-08-20T23:36:43.462Z,50.26
2018-08-20T23:39:16.185Z,50.56
2018-08-20T23:41:44.888Z,50.19
2018-08-20T23:44:17.097Z,50.49
2018-08-20T23:46:47.775Z,51.14
2018-08-20T23:49:16.339Z,51.29
2018-08-20T23:51:45.021Z,51.50
2018-08-20T23:54:14.212Z,51.19
2018-08-20T23:56:42.811Z,51.63
2018-08-20T23:59:11.524Z,51.65
